Time;durP1;ratioP1;P1;durP2;ratioP2;P2;SDS_P1;SDS_P2;PMS_P1;PMS_P2;Temp;Humidity;BMP_temperature;BMP_pressure;BME280_temperature;BME280_humidity;BME280_pressure;Samples;Min_cycle;Max_cycle;Signal;HPM_P1;HPM_P2
2023/04/07 00:00:33;;;;;;;18.65;14.32;;;6.30;77.10;;;;;;5077807;28;20040;-52
2023/04/07 00:03:05;;;;;;;19.55;15.13;;;6.30;77.80;;;;;;5077265;28;20024;-45
2023/04/07 00:05:32;;;;;;;19.65;14.55;;;6.20;78.00;;;;;;5092905;28;20032;-48
2023/04/07 00:07:59;;;;;;;19.00;15.13;;;6.20;78.20;;;;;;5076927;28;20032;-45
2023/04/07 00:10:26;;;;;;;20.25;16.02;;;6.20;78.20;;;;;;5073119;28;20606;-46
2023/04/07 00:12:53;;;;;;;19.17;14.68;;;6.10;78.30;;;;;;5093142;28;20040;-47
2023/04/07 00:15:20;;;;;;;21.75;15.57;;;6.00;78.30;;;;;;5093317;28;20032;-46
2023/04/07 00:17:47;;;;;;;18.90;14.23;;;6.00;78.50;;;;;;5077098;28;20104;-45
2023/04/07 00:20:13;;;;;;;17.50;13.93;;;5.90;78.60;;;;;;5056690;28;20047;-45
2023/04/07 00:22:41;;;;;;;18.38;15.00;;;5.90;78.60;;;;;;5075024;28;20118;-46
2023/04/07 00:25:10;;;;;;;20.52;14.10;;;5.90;78.70;;;;;;5074503;28;20103;-45
2023/04/07 00:27:40;;;;;;;18.30;14.30;;;5.80;78.80;;;;;;5091104;28;20446;-45
2023/04/07 00:30:07;;;;;;;19.17;13.93;;;5.70;78.90;;;;;;5094384;28;20040;-45
2023/04/07 00:32:40;;;;;;;16.70;13.50;;;5.70;79.00;;;;;;5059505;28;20060;-46
2023/04/07 00:35:06;;;;;;;16.42;13.88;;;5.70;79.00;;;;;;5074440;28;20024;-46
2023/04/07 00:37:36;;;;;;;17.58;13.27;;;5.70;79.10;;;;;;5074452;28;20024;-45
2023/04/07 00:40:04;;;;;;;16.30;12.73;;;5.60;79.30;;;;;;5074517;28;20024;-44
2023/04/07 00:42:32;;;;;;;17.58;12.85;;;5.60;79.30;;;;;;5086509;28;20067;-47
2023/04/07 00:44:59;;;;;;;16.88;13.57;;;5.60;79.40;;;;;;5074444;28;20099;-47
2023/04/07 00:47:26;;;;;;;18.20;13.65;;;5.50;79.40;;;;;;5092346;28;20051;-45
2023/04/07 00:49:55;;;;;;;17.40;13.35;;;5.50;79.50;;;;;;5094663;28;20028;-48
2023/04/07 00:52:27;;;;;;;17.58;13.65;;;5.40;80.00;;;;;;5070668;28;20037;-45
2023/04/07 00:54:54;;;;;;;22.90;16.02;;;5.40;80.30;;;;;;5092107;28;20028;-45
2023/04/07 00:57:21;;;;;;;19.45;14.25;;;5.40;80.30;;;;;;5092979;28;20024;-45
2023/04/07 00:59:49;;;;;;;20.83;15.00;;;5.40;80.50;;;;;;5094168;28;20448;-47
2023/04/07 01:02:26;;;;;;;20.33;15.75;;;5.40;80.60;;;;;;5086923;28;20035;-46
2023/04/07 01:05:22;;;;;;;19.05;14.13;;;5.40;80.80;;;;;;5094023;28;20102;-46
2023/04/07 01:08:42;;;;;;;21.77;13.90;;;5.30;80.60;;;;;;5092788;28;20051;-47
2023/04/07 01:11:29;;;;;;;17.00;12.85;;;5.30;80.40;;;;;;4991640;28;20042;-45
2023/04/07 01:13:59;;;;;;;16.98;12.13;;;5.30;80.30;;;;;;5062965;28;20520;-44
2023/04/07 01:16:44;;;;;;;20.70;14.50;;;5.20;80.40;;;;;;5074088;28;20716;-45
2023/04/07 01:19:36;;;;;;;17.10;14.07;;;5.20;80.20;;;;;;5073202;28;20475;-46
2023/04/07 01:22:15;;;;;;;21.27;14.27;;;5.20;80.40;;;;;;5055643;28;20039;-48
2023/04/07 01:25:09;;;;;;;15.63;12.43;;;5.20;80.20;;;;;;5077881;28;20043;-48
2023/04/07 01:28:12;;;;;;;16.90;13.43;;;5.20;80.40;;;;;;5081947;28;20036;-45
2023/04/07 01:30:43;;;;;;;16.58;12.15;;;5.30;80.40;;;;;;5087820;28;20056;-46
2023/04/07 01:33:11;;;;;;;17.63;13.20;;;5.30;80.30;;;;;;5073433;28;20042;-47
2023/04/07 01:35:41;;;;;;;16.60;13.18;;;5.40;80.30;;;;;;5088429;28;20027;-45
2023/04/07 01:38:10;;;;;;;16.48;12.20;;;5.40;80.10;;;;;;5092713;28;20024;-45
2023/04/07 01:40:40;;;;;;;18.38;13.20;;;5.40;79.90;;;;;;5093546;28;20744;-46
2023/04/07 01:43:10;;;;;;;18.02;13.00;;;5.40;79.50;;;;;;5086687;28;20024;-47
2023/04/07 01:45:37;;;;;;;15.82;12.75;;;5.40;78.90;;;;;;5075319;28;20179;-47
2023/04/07 01:48:08;;;;;;;16.63;13.20;;;5.30;79.10;;;;;;5073047;28;20108;-46
2023/04/07 01:50:40;;;;;;;18.30;12.95;;;5.30;78.80;;;;;;5091797;28;20039;-46
2023/04/07 01:53:07;;;;;;;15.52;12.07;;;5.40;78.20;;;;;;5070882;28;20036;-46
2023/04/07 01:55:34;;;;;;;15.55;12.90;;;5.40;77.70;;;;;;5080815;28;20054;-47
2023/04/07 01:58:05;;;;;;;18.17;12.93;;;5.40;77.40;;;;;;5090434;28;20024;-45
2023/04/07 02:00:33;;;;;;;16.50;12.43;;;5.40;77.50;;;;;;5090325;28;20042;-44
2023/04/07 02:03:22;;;;;;;15.48;11.77;;;5.40;77.40;;;;;;5073539;28;20112;-47
2023/04/07 02:05:53;;;;;;;15.43;11.97;;;5.40;77.40;;;;;;5072761;28;20020;-46
2023/04/07 02:08:22;;;;;;;17.23;12.85;;;5.30;77.20;;;;;;5055442;28;20299;-46
2023/04/07 02:10:50;;;;;;;19.23;15.02;;;5.40;77.80;;;;;;5072725;28;20107;-46
2023/04/07 02:13:19;;;;;;;17.10;12.50;;;5.40;77.50;;;;;;5079164;28;20032;-51
2023/04/07 02:15:51;;;;;;;18.27;12.73;;;5.30;77.60;;;;;;5077167;28;20020;-46
2023/04/07 02:18:21;;;;;;;14.98;12.27;;;5.40;77.60;;;;;;5093171;28;20127;-45
2023/04/07 02:20:50;;;;;;;17.70;12.70;;;5.30;77.60;;;;;;5091856;28;20024;-46
2023/04/07 02:23:17;;;;;;;;;;;5.30;77.00;;;;;;5073774;28;20350;-45
2023/04/07 02:25:43;;;;;;;16.00;11.55;;;5.30;77.20;;;;;;5080557;28;19969;-46
2023/04/07 02:28:10;;;;;;;18.23;12.40;;;5.20;76.80;;;;;;5077630;28;20162;-46
2023/04/07 02:30:38;;;;;;;17.92;12.25;;;5.20;76.70;;;;;;5082994;28;20031;-46
2023/04/07 02:33:05;;;;;;;15.55;12.23;;;5.20;76.90;;;;;;5097108;28;20110;-45
2023/04/07 02:35:31;;;;;;;17.38;12.95;;;5.20;76.80;;;;;;5074599;28;20175;-48
2023/04/07 02:37:57;;;;;;;16.27;12.30;;;5.20;76.80;;;;;;5079726;28;20107;-47
2023/04/07 02:40:22;;;;;;;18.15;12.68;;;5.20;76.30;;;;;;5094948;28;20032;-45
2023/04/07 02:42:49;;;;;;;16.67;13.15;;;5.20;76.00;;;;;;5090049;28;20099;-46
2023/04/07 02:45:17;;;;;;;15.70;12.50;;;5.20;75.20;;;;;;5083051;28;20051;-46
2023/04/07 02:47:44;;;;;;;14.50;11.00;;;5.20;76.10;;;;;;5095993;28;20039;-45
2023/04/07 02:50:10;;;;;;;16.88;13.27;;;5.30;75.40;;;;;;5096749;28;20103;-47
2023/04/07 02:52:37;;;;;;;17.63;11.80;;;5.30;75.90;;;;;;5079662;28;20134;-46
2023/04/07 02:55:04;;;;;;;16.15;12.95;;;5.30;75.90;;;;;;5076240;28;20032;-47
2023/04/07 02:57:31;;;;;;;15.55;12.48;;;5.30;76.40;;;;;;5076126;28;20017;-45
2023/04/07 02:59:58;;;;;;;20.10;12.77;;;5.30;76.00;;;;;;5090251;28;20031;-46
2023/04/07 03:02:27;;;;;;;14.45;12.32;;;5.30;75.80;;;;;;5094075;28;20020;-46
2023/04/07 03:04:54;;;;;;;15.43;12.40;;;5.20;75.30;;;;;;5073967;28;20350;-46
2023/04/07 03:07:20;;;;;;;16.23;12.40;;;5.20;75.40;;;;;;5076293;28;20371;-50
2023/04/07 03:09:47;;;;;;;16.27;11.82;;;5.20;75.70;;;;;;5078467;28;20044;-49
2023/04/07 03:12:14;;;;;;;15.90;11.80;;;5.10;75.60;;;;;;5076051;28;20111;-46
2023/04/07 03:14:41;;;;;;;15.85;12.43;;;5.00;75.40;;;;;;5080673;28;20055;-47
2023/04/07 03:17:09;;;;;;;16.70;12.75;;;4.90;75.60;;;;;;5085704;28;20021;-47
2023/04/07 03:19:36;;;;;;;15.00;11.90;;;4.90;75.80;;;;;;5079308;28;20016;-45
2023/04/07 03:22:05;;;;;;;15.63;12.70;;;4.90;75.60;;;;;;5078119;28;20052;-49
2023/04/07 03:24:32;;;;;;;16.60;12.10;;;4.90;75.40;;;;;;5091992;28;20103;-49
2023/04/07 03:27:01;;;;;;;19.02;12.63;;;4.80;75.50;;;;;;5095744;28;20111;-45
2023/04/07 03:29:32;;;;;;;16.17;12.35;;;4.80;75.70;;;;;;5088500;28;20377;-47
2023/04/07 03:31:59;;;;;;;17.10;12.18;;;4.80;75.00;;;;;;5089988;28;20035;-49
2023/04/07 03:34:25;;;;;;;17.10;13.23;;;4.90;74.50;;;;;;5080634;28;20441;-45
2023/04/07 03:36:50;;;;;;;14.20;12.15;;;4.90;74.30;;;;;;5075184;28;20021;-46
2023/04/07 03:39:20;;;;;;;15.15;11.90;;;4.90;74.60;;;;;;5068557;28;20033;-46
2023/04/07 03:41:46;;;;;;;15.98;12.65;;;4.90;74.80;;;;;;5092324;28;20038;-45
2023/04/07 03:44:16;;;;;;;15.43;12.43;;;4.90;74.50;;;;;;5089284;28;20065;-46
2023/04/07 03:46:44;;;;;;;16.92;12.75;;;4.90;74.30;;;;;;5094304;28;20465;-49
2023/04/07 03:49:11;;;;;;;17.10;12.55;;;4.90;74.10;;;;;;5094400;28;20048;-49
2023/04/07 03:51:39;;;;;;;15.15;11.77;;;4.90;74.40;;;;;;5095721;28;20051;-45
2023/04/07 03:54:06;;;;;;;14.07;11.40;;;4.80;75.20;;;;;;5071341;28;20302;-46
2023/04/07 03:56:36;;;;;;;15.43;12.25;;;4.70;75.30;;;;;;5070325;28;20036;-47
2023/04/07 03:59:02;;;;;;;16.00;12.43;;;4.70;75.20;;;;;;5081459;28;20040;-47
2023/04/07 04:01:30;;;;;;;17.77;13.40;;;4.70;75.30;;;;;;5076335;28;20024;-44
2023/04/07 04:04:00;;;;;;;14.00;11.98;;;4.60;75.40;;;;;;5095343;28;20016;-45
2023/04/07 04:06:27;;;;;;;14.93;12.40;;;4.60;75.50;;;;;;5094055;28;20035;-47
2023/04/07 04:08:52;;;;;;;15.90;13.10;;;4.50;75.40;;;;;;5066948;28;20049;-44
2023/04/07 04:11:19;;;;;;;14.57;12.57;;;4.40;75.90;;;;;;5075050;28;20051;-46
2023/04/07 04:13:45;;;;;;;18.55;12.90;;;4.40;76.30;;;;;;5076471;28;20089;-45
2023/04/07 04:16:12;;;;;;;17.73;12.85;;;4.40;76.40;;;;;;5083807;28;20044;-47
2023/04/07 04:18:38;;;;;;;17.10;12.55;;;4.40;76.30;;;;;;5074949;28;20481;-46
2023/04/07 04:21:08;;;;;;;14.70;13.15;;;4.40;76.30;;;;;;5074661;28;20051;-46
2023/04/07 04:23:34;;;;;;;15.98;13.07;;;4.30;76.20;;;;;;5080686;28;20036;-45
2023/04/07 04:26:02;;;;;;;18.33;14.38;;;4.30;76.20;;;;;;5076816;28;20499;-46
2023/04/07 04:28:28;;;;;;;18.17;13.80;;;4.30;76.50;;;;;;5081334;28;20458;-49
2023/04/07 04:30:58;;;;;;;18.25;14.15;;;4.30;76.40;;;;;;5088311;28;20035;-46
2023/04/07 04:33:27;;;;;;;15.02;13.38;;;4.30;76.60;;;;;;5056729;28;20029;-46
2023/04/07 04:36:00;;;;;;;15.07;11.30;;;4.30;76.80;;;;;;5074587;28;20131;-45
2023/04/07 04:38:25;;;;;;;19.60;14.27;;;4.30;76.70;;;;;;5078475;28;20091;-47
2023/04/07 04:40:52;;;;;;;16.70;13.48;;;4.20;76.50;;;;;;5094691;28;20557;-45
2023/04/07 04:43:21;;;;;;;18.45;14.55;;;4.30;75.90;;;;;;5093178;28;20029;-49
2023/04/07 04:45:48;;;;;;;18.38;14.45;;;4.30;75.70;;;;;;5087950;28;20024;-47
2023/04/07 04:48:16;;;;;;;16.42;13.18;;;4.30;75.90;;;;;;5094583;28;20032;-47
2023/04/07 04:50:45;;;;;;;19.38;14.52;;;4.30;75.80;;;;;;5094465;28;20401;-47
2023/04/07 04:53:15;;;;;;;14.80;13.10;;;4.30;75.70;;;;;;5092839;28;20375;-46
2023/04/07 04:55:45;;;;;;;15.60;13.40;;;4.30;75.60;;;;;;5079624;28;20035;-47
2023/04/07 04:58:11;;;;;;;15.82;13.07;;;4.30;75.50;;;;;;5087539;28;20149;-48
2023/04/07 05:00:37;;;;;;;18.17;14.68;;;4.30;75.70;;;;;;5084763;28;20041;-48
2023/04/07 05:03:04;;;;;;;15.95;12.48;;;4.30;75.90;;;;;;5083075;28;20656;-46
2023/04/07 05:05:31;;;;;;;18.17;15.32;;;4.30;76.30;;;;;;5067132;28;20035;-47
2023/04/07 05:07:57;;;;;;;18.52;13.25;;;4.30;76.00;;;;;;5091850;28;20349;-47
2023/04/07 05:10:24;;;;;;;16.15;13.57;;;4.20;76.00;;;;;;5092236;28;20461;-47
2023/04/07 05:12:53;;;;;;;17.55;13.60;;;4.30;75.80;;;;;;5084562;28;20046;-46
2023/04/07 05:15:22;;;;;;;15.97;13.60;;;4.30;75.60;;;;;;5063041;28;20032;-50
2023/04/07 05:17:49;;;;;;;17.00;12.93;;;4.30;75.00;;;;;;5089199;28;20024;-45
2023/04/07 05:20:16;;;;;;;15.27;13.02;;;4.40;75.00;;;;;;5071930;28;20119;-48
2023/04/07 05:22:43;;;;;;;14.68;12.50;;;4.40;74.80;;;;;;5092127;28;20028;-47
2023/04/07 05:25:12;;;;;;;17.67;13.73;;;4.50;75.10;;;;;;5080539;28;20016;-46
2023/04/07 05:27:38;;;;;;;17.88;14.88;;;4.50;74.90;;;;;;5081535;28;20036;-45
2023/04/07 05:30:05;;;;;;;17.20;13.02;;;4.50;74.30;;;;;;5081199;28;20032;-46
2023/04/07 05:32:32;;;;;;;15.48;13.25;;;4.50;74.70;;;;;;5064818;28;20377;-50
2023/04/07 05:34:59;;;;;;;14.75;13.07;;;4.50;74.70;;;;;;5082976;28;20047;-45
2023/04/07 05:37:26;;;;;;;14.63;12.88;;;4.60;74.00;;;;;;5093562;28;20020;-44
2023/04/07 05:39:52;;;;;;;14.23;12.57;;;4.60;74.40;;;;;;5079453;28;20457;-46
2023/04/07 05:42:20;;;;;;;16.45;13.40;;;4.70;74.40;;;;;;5077984;28;20119;-48
2023/04/07 05:44:46;;;;;;;16.33;13.73;;;4.70;74.30;;;;;;5088059;28;20544;-47
2023/04/07 05:47:13;;;;;;;17.85;13.13;;;4.70;73.70;;;;;;5081039;28;20097;-50
2023/04/07 05:49:45;;;;;;;16.00;13.65;;;4.70;74.00;;;;;;5082244;28;20058;-51
2023/04/07 05:52:17;;;;;;;16.85;13.57;;;4.80;73.90;;;;;;5077372;28;20119;-47
2023/04/07 05:54:44;;;;;;;19.33;13.45;;;4.90;73.80;;;;;;5072544;28;20029;-47
2023/04/07 05:57:11;;;;;;;15.20;12.82;;;4.90;73.70;;;;;;5072434;28;20102;-50
2023/04/07 05:59:38;;;;;;;18.55;13.40;;;4.90;73.10;;;;;;5084892;28;20511;-48
2023/04/07 06:02:06;;;;;;;18.77;14.15;;;5.00;73.00;;;;;;5089583;28;20044;-47
2023/04/07 06:04:34;;;;;;;14.70;12.20;;;5.00;72.90;;;;;;5072410;28;20051;-51
2023/04/07 06:07:00;;;;;;;16.67;12.88;;;5.00;72.60;;;;;;5072799;28;20075;-48
2023/04/07 06:09:27;;;;;;;15.15;12.43;;;5.10;72.80;;;;;;5072215;28;20141;-46
2023/04/07 06:11:54;;;;;;;18.10;13.65;;;5.20;71.30;;;;;;5084455;28;20176;-47
2023/04/07 06:14:20;;;;;;;15.02;12.98;;;5.40;70.10;;;;;;5064907;28;20042;-46
2023/04/07 06:16:47;;;;;;;14.48;12.38;;;5.50;70.40;;;;;;5080481;28;20036;-45
2023/04/07 06:19:14;;;;;;;14.82;12.50;;;5.50;69.90;;;;;;5054949;28;20024;-46
2023/04/07 06:21:41;;;;;;;12.93;11.55;;;5.70;70.30;;;;;;5038501;28;20039;-50
2023/04/07 06:24:07;;;;;;;13.75;12.15;;;5.80;68.90;;;;;;5071936;28;20435;-45
2023/04/07 06:26:36;;;;;;;15.90;12.10;;;5.90;68.80;;;;;;5081330;28;20036;-46
2023/04/07 06:29:03;;;;;;;13.25;11.32;;;5.90;68.80;;;;;;5091895;28;20032;-51
2023/04/07 06:31:28;;;;;;;15.18;11.93;;;5.90;67.70;;;;;;5084897;28;20035;-48
2023/04/07 06:33:54;;;;;;;14.65;11.45;;;6.10;67.30;;;;;;5083790;28;20095;-45
2023/04/07 06:36:22;;;;;;;14.07;11.40;;;6.10;66.90;;;;;;5072701;28;20039;-48
2023/04/07 06:38:50;;;;;;;15.55;12.07;;;6.20;65.80;;;;;;5055188;28;20049;-46
2023/04/07 06:41:17;;;;;;;14.45;11.63;;;6.30;65.90;;;;;;5088915;28;20039;-48
2023/04/07 06:43:46;;;;;;;16.83;12.10;;;6.30;66.00;;;;;;5091905;28;20044;-46
2023/04/07 06:46:13;;;;;;;;;;;6.30;66.10;;;;;;5053292;28;20047;-46
2023/04/07 06:48:40;;;;;;;16.25;11.93;;;6.30;66.60;;;;;;5092760;28;19907;-47
2023/04/07 06:51:06;;;;;;;11.93;10.60;;;6.40;65.90;;;;;;5090947;28;20055;-49
2023/04/07 06:53:36;;;;;;;15.27;11.30;;;6.50;66.40;;;;;;5080413;28;20032;-45
2023/04/07 06:56:10;;;;;;;15.52;11.07;;;6.50;65.40;;;;;;5083854;28;20051;-48
2023/04/07 06:58:37;;;;;;;13.18;11.77;;;6.70;65.20;;;;;;5079906;28;20035;-46
2023/04/07 07:01:05;;;;;;;14.68;13.10;;;6.90;65.30;;;;;;5071782;28;20032;-46
2023/04/07 07:03:33;;;;;;;16.23;12.45;;;7.00;65.10;;;;;;5072280;28;20029;-44
2023/04/07 07:06:04;;;;;;;15.48;12.35;;;7.20;65.40;;;;;;5079683;28;20046;-48
2023/04/07 07:08:31;;;;;;;14.70;12.15;;;7.40;65.00;;;;;;5092499;28;20024;-45
2023/04/07 07:10:58;;;;;;;16.98;12.02;;;7.70;63.40;;;;;;5083034;28;20032;-49
2023/04/07 07:13:28;;;;;;;13.30;11.38;;;7.90;63.30;;;;;;5054839;28;20024;-51
2023/04/07 07:15:55;;;;;;;;;;;8.10;63.50;;;;;;5061846;28;20016;-49
2023/04/07 07:18:22;;;;;;;15.07;11.27;;;8.40;62.30;;;;;;5075392;28;19908;-48
2023/04/07 07:20:49;;;;;;;13.60;11.98;;;8.40;61.70;;;;;;5066058;28;20046;-47
2023/04/07 07:23:15;;;;;;;12.93;10.60;;;8.60;60.00;;;;;;5087288;28;20028;-51
2023/04/07 07:25:46;;;;;;;16.98;10.73;;;8.70;59.10;;;;;;5081841;28;20020;-48
2023/04/07 07:28:12;;;;;;;11.63;10.43;;;8.80;59.60;;;;;;5075642;28;20040;-45
2023/04/07 07:30:40;;;;;;;14.70;11.40;;;9.00;59.70;;;;;;5061834;28;20085;-46
2023/04/07 07:33:06;;;;;;;12.40;10.35;;;9.10;59.00;;;;;;5092979;28;20093;-46
2023/04/07 07:35:33;;;;;;;15.63;12.15;;;9.10;57.60;;;;;;5061322;28;20032;-48
2023/04/07 07:38:00;;;;;;;13.00;10.65;;;9.30;58.30;;;;;;5076665;28;20103;-44
2023/04/07 07:40:29;;;;;;;12.50;11.20;;;9.50;57.70;;;;;;5094346;28;20073;-47
2023/04/07 07:42:56;;;;;;;12.82;10.90;;;9.90;58.10;;;;;;5094445;28;20046;-50
2023/04/07 07:45:23;;;;;;;14.48;11.60;;;10.00;56.30;;;;;;5067263;28;20116;-47
2023/04/07 07:47:50;;;;;;;11.80;10.35;;;10.10;55.90;;;;;;5095378;28;20034;-46
2023/04/07 07:50:20;;;;;;;14.05;10.23;;;10.50;54.80;;;;;;5060334;28;20402;-46
2023/04/07 07:52:50;;;;;;;12.13;10.85;;;11.00;56.10;;;;;;5074396;28;20410;-46
2023/04/07 07:55:17;;;;;;;14.55;11.85;;;11.40;53.40;;;;;;5074777;28;20074;-46
2023/04/07 07:57:43;;;;;;;12.57;11.10;;;11.60;52.20;;;;;;5079580;28;20029;-46
2023/04/07 08:00:13;;;;;;;11.98;10.48;;;11.60;51.70;;;;;;5073902;28;20025;-49
2023/04/07 08:02:42;;;;;;;12.20;10.98;;;11.80;51.40;;;;;;5074433;28;20016;-48
2023/04/07 08:05:14;;;;;;;12.55;11.25;;;12.30;52.20;;;;;;5056494;28;20031;-45
2023/04/07 08:07:41;;;;;;;11.55;10.45;;;12.70;50.80;;;;;;5078992;28;20012;-47
2023/04/07 08:10:09;;;;;;;13.57;11.60;;;12.90;50.30;;;;;;5091528;28;20040;-47
2023/04/07 08:12:36;;;;;;;11.68;10.57;;;13.10;48.80;;;;;;5079896;28;20039;-45
2023/04/07 08:15:06;;;;;;;12.77;11.07;;;12.90;49.60;;;;;;5054646;28;20025;-48
2023/04/07 08:17:35;;;;;;;13.15;11.38;;;13.30;49.50;;;;;;5082164;28;20450;-46
2023/04/07 08:20:03;;;;;;;12.57;11.27;;;13.40;48.50;;;;;;5075270;28;20115;-48
2023/04/07 08:22:29;;;;;;;14.55;11.55;;;13.30;47.90;;;;;;5074750;28;20089;-47
2023/04/07 08:24:59;;;;;;;12.20;11.00;;;13.10;49.40;;;;;;5074924;28;20044;-46
2023/04/07 08:27:25;;;;;;;14.77;10.13;;;13.40;48.60;;;;;;5075701;28;20161;-45
2023/04/07 08:30:08;;;;;;;13.48;11.80;;;13.20;48.70;;;;;;5057061;28;20640;-44
2023/04/07 08:32:44;;;;;;;11.85;10.70;;;13.00;49.60;;;;;;5093009;28;20097;-49
2023/04/07 08:35:16;;;;;;;11.45;10.35;;;13.30;49.60;;;;;;5093174;28;20020;-47
2023/04/07 08:37:43;;;;;;;14.57;11.25;;;13.60;49.10;;;;;;5057044;28;20029;-46
2023/04/07 08:40:10;;;;;;;12.10;10.73;;;13.50;47.90;;;;;;5088645;28;20016;-47
2023/04/07 08:42:47;;;;;;;13.55;10.90;;;13.40;47.30;;;;;;5074680;28;20033;-46
2023/04/07 08:45:17;;;;;;;11.80;10.52;;;13.60;47.80;;;;;;5074579;28;20095;-45
2023/04/07 08:47:43;;;;;;;;;;;13.50;47.10;;;;;;5093922;28;20036;-45
2023/04/07 08:50:10;;;;;;;10.88;9.77;;;13.40;48.20;;;;;;5076494;28;19909;-46
2023/04/07 08:52:56;;;;;;;11.23;10.13;;;13.50;48.10;;;;;;5056692;28;20058;-46
2023/04/07 08:55:25;;;;;;;12.60;10.77;;;13.40;48.20;;;;;;5056534;28;20129;-48
2023/04/07 08:57:52;;;;;;;11.27;10.02;;;13.30;48.40;;;;;;5091657;28;20032;-51
2023/04/07 09:00:19;;;;;;;13.63;10.27;;;13.70;49.00;;;;;;5071216;28;20043;-47
2023/04/07 09:02:48;;;;;;;11.38;10.25;;;13.50;47.30;;;;;;5084950;28;20047;-48
2023/04/07 09:05:14;;;;;;;10.30;9.30;;;13.50;47.40;;;;;;5090051;28;20031;-47
2023/04/07 09:07:44;;;;;;;11.48;10.27;;;13.30;46.90;;;;;;5087969;28;20127;-46
2023/04/07 09:10:13;;;;;;;11.75;10.50;;;13.60;48.20;;;;;;5093632;28;20090;-47
2023/04/07 09:12:41;;;;;;;12.55;10.38;;;13.80;48.00;;;;;;5083509;28;20056;-47
2023/04/07 09:15:12;;;;;;;10.57;9.50;;;14.10;48.10;;;;;;5055451;28;20082;-48
2023/04/07 09:17:39;;;;;;;12.35;10.07;;;14.00;47.10;;;;;;5093636;28;20020;-48
2023/04/07 09:20:05;;;;;;;12.57;10.15;;;14.40;47.50;;;;;;5080698;28;20024;-49
2023/04/07 09:22:50;;;;;;;11.05;8.90;;;14.40;45.80;;;;;;5082529;28;20042;-48
2023/04/07 09:25:25;;;;;;;10.90;9.75;;;14.60;44.30;;;;;;5059709;28;20055;-49
2023/04/07 09:27:58;;;;;;;11.13;9.95;;;14.60;44.40;;;;;;5083056;28;20028;-45
2023/04/07 09:30:26;;;;;;;12.93;9.50;;;14.80;43.30;;;;;;5085921;28;20545;-46
2023/04/07 09:32:53;;;;;;;10.60;9.27;;;14.90;43.90;;;;;;5079236;28;20021;-49
2023/04/07 09:35:21;;;;;;;10.23;9.10;;;14.90;43.30;;;;;;5092504;28;20097;-46
2023/04/07 09:38:06;;;;;;;11.00;8.43;;;14.80;42.30;;;;;;5091106;28;20063;-49
2023/04/07 09:40:33;;;;;;;12.43;9.25;;;14.70;41.40;;;;;;5072932;28;20032;-51
2023/04/07 09:43:01;;;;;;;10.13;8.60;;;15.00;42.30;;;;;;5093182;28;20024;-46
2023/04/07 09:45:33;;;;;;;10.50;8.73;;;15.10;42.30;;;;;;5085967;28;20056;-47
2023/04/07 09:48:07;;;;;;;11.27;8.20;;;15.50;38.20;;;;;;5091161;28;20377;-46
2023/04/07 09:50:40;;;;;;;10.02;8.55;;;15.30;40.80;;;;;;5073299;28;20024;-45
2023/04/07 09:53:06;;;;;;;8.00;7.20;;;15.40;42.30;;;;;;5091454;28;20024;-48
2023/04/07 09:55:35;;;;;;;11.57;8.55;;;15.10;42.20;;;;;;5073804;28;20029;-45
2023/04/07 09:58:03;;;;;;;11.57;8.15;;;15.40;39.80;;;;;;5066262;28;20085;-49
2023/04/07 10:00:29;;;;;;;9.15;7.75;;;15.40;38.40;;;;;;5089814;28;20024;-45
2023/04/07 10:02:56;;;;;;;10.18;8.15;;;15.40;40.20;;;;;;5072733;28;20036;-46
2023/04/07 10:05:24;;;;;;;9.15;8.25;;;15.40;39.40;;;;;;5092627;28;20085;-46
2023/04/07 10:07:53;;;;;;;9.57;8.48;;;15.40;41.50;;;;;;5098331;28;20020;-46
2023/04/07 10:10:20;;;;;;;9.77;8.55;;;15.70;39.00;;;;;;5090362;28;20044;-46
2023/04/07 10:12:52;;;;;;;9.80;7.65;;;15.80;39.70;;;;;;5100573;28;20034;-49
2023/04/07 10:15:19;;;;;;;9.52;7.22;;;15.90;39.20;;;;;;5088571;28;20462;-47
2023/04/07 10:17:50;;;;;;;11.35;8.10;;;16.00;40.30;;;;;;5080228;28;20028;-46
2023/04/07 10:20:19;;;;;;;8.75;7.85;;;15.90;39.10;;;;;;5089798;28;20325;-49
2023/04/07 10:22:50;;;;;;;11.63;8.02;;;15.80;40.00;;;;;;5076182;28;20028;-50
2023/04/07 10:25:20;;;;;;;9.48;8.27;;;15.60;37.60;;;;;;5073335;28;20028;-47
2023/04/07 10:28:03;;;;;;;;;;;15.50;40.70;;;;;;5082864;28;20027;-46
2023/04/07 10:30:31;;;;;;;10.65;7.82;;;15.60;39.30;;;;;;5090549;28;19919;-49
2023/04/07 10:32:58;;;;;;;17.83;8.27;;;15.40;38.80;;;;;;5080537;28;20020;-48
2023/04/07 10:35:27;;;;;;;8.55;7.75;;;15.20;39.40;;;;;;5072142;28;20468;-46
2023/04/07 10:38:15;;;;;;;10.70;8.05;;;15.40;41.30;;;;;;5067404;28;20052;-49
2023/04/07 10:40:42;;;;;;;10.00;6.95;;;15.30;38.90;;;;;;5071900;28;20025;-48
2023/04/07 10:43:13;;;;;;;8.55;6.95;;;15.40;40.10;;;;;;5080542;28;20031;-50
2023/04/07 10:46:04;;;;;;;9.23;7.13;;;15.50;40.60;;;;;;5069921;28;20039;-46
2023/04/07 10:48:32;;;;;;;14.02;8.80;;;15.60;40.50;;;;;;5082403;28;20048;-47
2023/04/07 10:51:09;;;;;;;10.75;9.23;;;15.60;39.50;;;;;;5084789;28;20027;-51
2023/04/07 10:53:37;;;;;;;13.65;7.90;;;15.30;40.60;;;;;;5092546;28;20016;-46
2023/04/07 10:56:07;;;;;;;9.73;8.57;;;15.10;41.00;;;;;;5081452;28;20387;-46
2023/04/07 10:58:32;;;;;;;9.65;7.45;;;14.90;41.40;;;;;;5094026;28;20039;-46
2023/04/07 11:01:13;;;;;;;9.68;8.07;;;14.90;41.10;;;;;;5085580;28;20028;-46
2023/04/07 11:03:50;;;;;;;10.60;7.63;;;14.60;41.40;;;;;;5082497;28;20016;-48
2023/04/07 11:06:17;;;;;;;18.35;9.15;;;14.80;41.30;;;;;;5070042;28;20025;-46
2023/04/07 11:08:46;;;;;;;13.38;8.27;;;14.50;40.00;;;;;;5091981;28;20028;-49
2023/04/07 11:11:34;;;;;;;12.65;8.68;;;14.60;41.50;;;;;;5066334;28;20046;-47
2023/04/07 11:14:01;;;;;;;10.93;7.90;;;14.40;41.60;;;;;;5079162;28;20032;-48
2023/04/07 11:16:44;;;;;;;10.43;7.60;;;14.20;41.30;;;;;;5065841;28;20035;-48
2023/04/07 11:19:17;;;;;;;8.75;7.25;;;14.10;41.90;;;;;;5070601;28;20052;-47
2023/04/07 11:21:43;;;;;;;13.38;8.82;;;14.00;40.80;;;;;;5064737;28;20036;-48
2023/04/07 11:24:34;;;;;;;9.25;7.25;;;14.00;42.40;;;;;;5075066;28;20480;-50
2023/04/07 11:27:00;;;;;;;11.57;7.93;;;14.10;43.10;;;;;;5088678;28;20036;-47
2023/04/07 11:29:33;;;;;;;10.85;8.23;;;14.00;41.20;;;;;;5063942;28;20056;-45
2023/04/07 11:32:01;;;;;;;12.73;8.13;;;13.80;41.80;;;;;;5060265;28;20055;-49
2023/04/07 11:34:35;;;;;;;15.35;7.88;;;14.00;43.50;;;;;;5065801;28;20032;-47
2023/04/07 11:37:27;;;;;;;8.95;7.03;;;14.10;42.60;;;;;;5068778;28;20047;-49
2023/04/07 11:40:15;;;;;;;9.45;7.55;;;14.20;42.70;;;;;;5059123;28;20020;-48
2023/04/07 11:42:45;;;;;;;12.93;8.50;;;14.10;41.30;;;;;;5073655;28;20017;-48
2023/04/07 11:45:19;;;;;;;8.45;6.75;;;13.90;41.40;;;;;;5076009;28;20035;-46
2023/04/07 11:47:49;;;;;;;11.65;7.85;;;13.40;41.30;;;;;;5093180;28;20090;-47
2023/04/07 11:50:37;;;;;;;11.27;8.02;;;13.60;43.30;;;;;;5081863;28;20745;-47
2023/04/07 11:53:04;;;;;;;9.10;6.78;;;13.40;42.40;;;;;;5078762;28;20099;-46
2023/04/07 11:55:31;;;;;;;11.15;8.38;;;13.50;43.20;;;;;;5090133;28;20050;-46
2023/04/07 11:58:10;;;;;;;9.75;8.35;;;13.70;43.50;;;;;;5083827;28;20032;-47
2023/04/07 12:00:53;;;;;;;9.18;6.72;;;13.80;42.10;;;;;;5090292;28;20055;-47
2023/04/07 12:03:21;;;;;;;9.93;7.78;;;13.50;42.40;;;;;;5054393;28;20032;-49
2023/04/07 12:05:47;;;;;;;10.50;7.38;;;13.50;42.80;;;;;;5060448;28;20028;-46
2023/04/07 12:08:17;;;;;;;10.05;7.05;;;13.40;43.90;;;;;;5093579;28;20032;-50
2023/04/07 12:10:44;;;;;;;9.10;7.53;;;13.60;44.00;;;;;;5093320;28;20058;-47
2023/04/07 12:13:12;;;;;;;10.02;7.68;;;13.80;42.80;;;;;;5083166;28;20063;-47
2023/04/07 12:15:39;;;;;;;9.82;8.10;;;13.80;40.90;;;;;;5070723;28;20051;-50
2023/04/07 12:18:09;;;;;;;11.35;7.22;;;13.80;41.90;;;;;;5071766;28;20056;-45
2023/04/07 12:20:35;;;;;;;9.88;7.13;;;13.70;42.10;;;;;;5085088;28;20342;-48
2023/04/07 12:23:02;;;;;;;9.18;7.22;;;13.90;43.50;;;;;;5081308;28;20373;-46
2023/04/07 12:25:29;;;;;;;8.35;7.05;;;13.80;41.70;;;;;;5086521;28;20074;-48
2023/04/07 12:27:56;;;;;;;11.43;7.45;;;13.70;41.20;;;;;;5071743;28;20032;-47
2023/04/07 12:30:27;;;;;;;10.05;7.47;;;13.50;41.70;;;;;;5075601;28;20031;-48
2023/04/07 12:32:58;;;;;;;8.63;7.72;;;13.50;40.40;;;;;;5083251;28;20449;-49
2023/04/07 12:35:25;;;;;;;9.30;7.07;;;13.60;42.40;;;;;;5056403;28;20029;-47
2023/04/07 12:37:51;;;;;;;12.23;8.00;;;13.40;41.40;;;;;;5088824;28;20531;-49
2023/04/07 12:40:22;;;;;;;;;;;13.40;40.90;;;;;;5085828;28;20032;-46
2023/04/07 12:42:48;;;;;;;8.10;6.53;;;13.10;41.70;;;;;;5073985;28;20306;-47
2023/04/07 12:45:15;;;;;;;9.15;6.95;;;13.00;41.70;;;;;;5073707;28;20051;-48
2023/04/07 12:47:43;;;;;;;9.93;7.10;;;13.10;41.00;;;;;;5093607;28;20339;-47
2023/04/07 12:50:10;;;;;;;11.57;7.70;;;13.30;41.20;;;;;;5075836;28;20445;-46